sensor_id;sensor_type;location;lat;lon;timestamp;P1;durP1;ratioP1;P2;durP2;ratioP2
3726;SDS011;1879;45.876;12.300;2023-12-20T00:00:22;22.70;;;20.60;;
3726;SDS011;1879;45.876;12.300;2023-12-20T00:02:49;22.70;;;20.40;;
3726;SDS011;1879;45.876;12.300;2023-12-20T00:05:16;26.87;;;23.07;;
3726;SDS011;1879;45.876;12.300;2023-12-20T00:07:43;25.67;;;23.20;;
3726;SDS011;1879;45.876;12.300;2023-12-20T00:10:10;26.43;;;23.90;;
3726;SDS011;1879;45.876;12.300;2023-12-20T00:12:38;24.00;;;21.57;;
3726;SDS011;1879;45.876;12.300;2023-12-20T00:15:06;24.83;;;22.53;;
3726;SDS011;1879;45.876;12.300;2023-12-20T00:17:35;26.97;;;24.40;;
3726;SDS011;1879;45.876;12.300;2023-12-20T00:20:02;23.93;;;21.63;;
3726;SDS011;1879;45.876;12.300;2023-12-20T00:22:29;23.43;;;21.13;;
3726;SDS011;1879;45.876;12.300;2023-12-20T00:24:56;25.43;;;22.93;;
3726;SDS011;1879;45.876;12.300;2023-12-20T00:27:23;25.33;;;22.90;;
3726;SDS011;1879;45.876;12.300;2023-12-20T00:29:50;24.37;;;22.03;;
3726;SDS011;1879;45.876;12.300;2023-12-20T00:32:17;24.27;;;21.63;;
3726;SDS011;1879;45.876;12.300;2023-12-20T00:34:45;24.70;;;22.20;;
3726;SDS011;1879;45.876;12.300;2023-12-20T00:37:12;24.87;;;22.47;;
3726;SDS011;1879;45.876;12.300;2023-12-20T00:39:39;23.23;;;21.03;;
3726;SDS011;1879;45.876;12.300;2023-12-20T00:42:06;24.27;;;21.87;;
3726;SDS011;1879;45.876;12.300;2023-12-20T00:44:33;23.60;;;21.30;;
3726;SDS011;1879;45.876;12.300;2023-12-20T00:47:00;22.60;;;20.40;;
3726;SDS011;1879;45.876;12.300;2023-12-20T00:49:27;24.73;;;22.43;;
3726;SDS011;1879;45.876;12.300;2023-12-20T00:51:55;23.53;;;21.30;;
3726;SDS011;1879;45.876;12.300;2023-12-20T00:54:22;21.23;;;19.33;;
3726;SDS011;1879;45.876;12.300;2023-12-20T00:56:49;23.10;;;20.90;;
3726;SDS011;1879;45.876;12.300;2023-12-20T00:59:24;23.20;;;20.97;;
3726;SDS011;1879;45.876;12.300;2023-12-20T01:01:51;22.17;;;20.07;;
3726;SDS011;1879;45.876;12.300;2023-12-20T01:04:18;20.63;;;18.63;;
3726;SDS011;1879;45.876;12.300;2023-12-20T01:06:45;19.23;;;17.43;;
3726;SDS011;1879;45.876;12.300;2023-12-20T01:09:15;20.00;;;18.20;;
3726;SDS011;1879;45.876;12.300;2023-12-20T01:11:42;19.57;;;17.50;;
3726;SDS011;1879;45.876;12.300;2023-12-20T01:14:09;20.07;;;18.17;;
3726;SDS011;1879;45.876;12.300;2023-12-20T01:16:37;19.27;;;17.50;;
3726;SDS011;1879;45.876;12.300;2023-12-20T01:19:04;20.60;;;18.80;;
3726;SDS011;1879;45.876;12.300;2023-12-20T01:21:30;21.93;;;19.87;;
3726;SDS011;1879;45.876;12.300;2023-12-20T01:23:57;20.73;;;18.83;;
3726;SDS011;1879;45.876;12.300;2023-12-20T01:26:26;20.40;;;18.43;;
3726;SDS011;1879;45.876;12.300;2023-12-20T01:28:52;20.07;;;18.17;;
3726;SDS011;1879;45.876;12.300;2023-12-20T01:31:19;18.80;;;17.00;;
3726;SDS011;1879;45.876;12.300;2023-12-20T01:33:46;20.20;;;18.30;;
3726;SDS011;1879;45.876;12.300;2023-12-20T01:36:13;20.60;;;18.70;;
3726;SDS011;1879;45.876;12.300;2023-12-20T01:38:41;20.00;;;18.00;;
3726;SDS011;1879;45.876;12.300;2023-12-20T01:41:08;19.70;;;17.73;;
3726;SDS011;1879;45.876;12.300;2023-12-20T01:43:36;17.23;;;15.53;;
3726;SDS011;1879;45.876;12.300;2023-12-20T01:46:03;16.33;;;14.67;;
3726;SDS011;1879;45.876;12.300;2023-12-20T01:48:30;18.57;;;16.87;;
3726;SDS011;1879;45.876;12.300;2023-12-20T01:50:57;18.10;;;16.20;;
3726;SDS011;1879;45.876;12.300;2023-12-20T01:53:25;19.20;;;16.17;;
3726;SDS011;1879;45.876;12.300;2023-12-20T01:55:55;17.13;;;15.43;;
3726;SDS011;1879;45.876;12.300;2023-12-20T01:58:24;17.50;;;15.73;;
3726;SDS011;1879;45.876;12.300;2023-12-20T02:00:53;16.47;;;14.87;;
3726;SDS011;1879;45.876;12.300;2023-12-20T02:03:21;15.83;;;14.33;;
3726;SDS011;1879;45.876;12.300;2023-12-20T02:05:48;17.00;;;15.30;;
3726;SDS011;1879;45.876;12.300;2023-12-20T02:08:15;18.50;;;16.90;;
3726;SDS011;1879;45.876;12.300;2023-12-20T02:10:42;18.37;;;16.47;;
3726;SDS011;1879;45.876;12.300;2023-12-20T02:13:09;17.50;;;15.90;;
3726;SDS011;1879;45.876;12.300;2023-12-20T02:15:36;18.80;;;17.00;;
3726;SDS011;1879;45.876;12.300;2023-12-20T02:20:32;17.63;;;16.07;;
3726;SDS011;1879;45.876;12.300;2023-12-20T02:23:01;16.10;;;14.60;;
3726;SDS011;1879;45.876;12.300;2023-12-20T02:25:27;15.93;;;14.60;;
3726;SDS011;1879;45.876;12.300;2023-12-20T02:27:54;16.93;;;15.50;;
3726;SDS011;1879;45.876;12.300;2023-12-20T02:30:22;20.23;;;18.33;;
3726;SDS011;1879;45.876;12.300;2023-12-20T02:32:49;16.30;;;14.80;;
3726;SDS011;1879;45.876;12.300;2023-12-20T02:35:16;16.57;;;14.80;;
3726;SDS011;1879;45.876;12.300;2023-12-20T02:37:43;18.23;;;15.90;;
3726;SDS011;1879;45.876;12.300;2023-12-20T02:40:11;17.57;;;15.97;;
3726;SDS011;1879;45.876;12.300;2023-12-20T02:42:38;15.93;;;14.23;;
3726;SDS011;1879;45.876;12.300;2023-12-20T02:45:05;14.80;;;13.50;;
3726;SDS011;1879;45.876;12.300;2023-12-20T02:47:33;15.40;;;14.03;;
3726;SDS011;1879;45.876;12.300;2023-12-20T02:50:00;16.00;;;14.40;;
3726;SDS011;1879;45.876;12.300;2023-12-20T02:52:28;18.10;;;15.47;;
3726;SDS011;1879;45.876;12.300;2023-12-20T02:54:55;16.17;;;14.77;;
3726;SDS011;1879;45.876;12.300;2023-12-20T02:57:23;14.90;;;13.57;;
3726;SDS011;1879;45.876;12.300;2023-12-20T02:59:50;15.67;;;14.10;;
3726;SDS011;1879;45.876;12.300;2023-12-20T03:02:17;17.90;;;14.47;;
3726;SDS011;1879;45.876;12.300;2023-12-20T03:04:44;16.00;;;14.37;;
3726;SDS011;1879;45.876;12.300;2023-12-20T03:07:11;13.23;;;12.13;;
3726;SDS011;1879;45.876;12.300;2023-12-20T03:09:38;15.13;;;13.67;;
3726;SDS011;1879;45.876;12.300;2023-12-20T03:12:05;14.77;;;13.27;;
3726;SDS011;1879;45.876;12.300;2023-12-20T03:14:33;15.23;;;13.67;;
3726;SDS011;1879;45.876;12.300;2023-12-20T03:17:00;14.73;;;13.33;;
3726;SDS011;1879;45.876;12.300;2023-12-20T03:19:27;15.10;;;13.60;;
3726;SDS011;1879;45.876;12.300;2023-12-20T03:21:54;14.20;;;12.90;;
3726;SDS011;1879;45.876;12.300;2023-12-20T03:24:21;13.67;;;12.30;;
3726;SDS011;1879;45.876;12.300;2023-12-20T03:26:48;13.90;;;12.60;;
3726;SDS011;1879;45.876;12.300;2023-12-20T03:29:15;13.57;;;12.07;;
3726;SDS011;1879;45.876;12.300;2023-12-20T03:31:43;13.23;;;12.13;;
3726;SDS011;1879;45.876;12.300;2023-12-20T03:34:10;13.70;;;12.43;;
3726;SDS011;1879;45.876;12.300;2023-12-20T03:36:37;14.00;;;12.60;;
3726;SDS011;1879;45.876;12.300;2023-12-20T03:39:05;13.80;;;12.40;;
3726;SDS011;1879;45.876;12.300;2023-12-20T03:41:32;15.07;;;13.30;;
3726;SDS011;1879;45.876;12.300;2023-12-20T03:43:59;16.23;;;12.73;;
3726;SDS011;1879;45.876;12.300;2023-12-20T03:46:26;12.53;;;11.33;;
3726;SDS011;1879;45.876;12.300;2023-12-20T03:48:54;14.07;;;11.57;;
3726;SDS011;1879;45.876;12.300;2023-12-20T03:51:21;12.57;;;11.40;;
3726;SDS011;1879;45.876;12.300;2023-12-20T03:53:48;12.97;;;11.70;;
3726;SDS011;1879;45.876;12.300;2023-12-20T03:56:15;13.90;;;12.63;;
3726;SDS011;1879;45.876;12.300;2023-12-20T03:58:42;14.27;;;12.87;;
3726;SDS011;1879;45.876;12.300;2023-12-20T04:01:09;14.67;;;12.87;;
3726;SDS011;1879;45.876;12.300;2023-12-20T04:03:37;17.10;;;13.40;;
3726;SDS011;1879;45.876;12.300;2023-12-20T04:06:06;16.30;;;13.30;;
3726;SDS011;1879;45.876;12.300;2023-12-20T04:08:33;15.80;;;13.87;;
3726;SDS011;1879;45.876;12.300;2023-12-20T04:11:00;15.53;;;13.73;;
3726;SDS011;1879;45.876;12.300;2023-12-20T04:13:27;15.17;;;13.60;;
3726;SDS011;1879;45.876;12.300;2023-12-20T04:15:54;15.67;;;14.27;;
3726;SDS011;1879;45.876;12.300;2023-12-20T04:18:21;15.27;;;13.77;;
3726;SDS011;1879;45.876;12.300;2023-12-20T04:20:48;16.30;;;14.60;;
3726;SDS011;1879;45.876;12.300;2023-12-20T04:23:18;16.20;;;12.90;;
3726;SDS011;1879;45.876;12.300;2023-12-20T04:25:45;13.27;;;11.97;;
3726;SDS011;1879;45.876;12.300;2023-12-20T04:28:12;14.10;;;12.80;;
3726;SDS011;1879;45.876;12.300;2023-12-20T04:30:38;15.70;;;14.10;;
3726;SDS011;1879;45.876;12.300;2023-12-20T04:33:05;14.07;;;12.70;;
3726;SDS011;1879;45.876;12.300;2023-12-20T04:35:32;14.33;;;12.90;;
3726;SDS011;1879;45.876;12.300;2023-12-20T04:37:59;16.50;;;11.77;;
3726;SDS011;1879;45.876;12.300;2023-12-20T04:40:28;13.00;;;11.80;;
3726;SDS011;1879;45.876;12.300;2023-12-20T04:42:55;13.67;;;12.40;;
3726;SDS011;1879;45.876;12.300;2023-12-20T04:45:21;13.87;;;12.57;;
3726;SDS011;1879;45.876;12.300;2023-12-20T04:47:49;12.90;;;11.60;;
3726;SDS011;1879;45.876;12.300;2023-12-20T04:50:17;11.90;;;10.80;;
3726;SDS011;1879;45.876;12.300;2023-12-20T04:52:44;11.83;;;10.80;;
3726;SDS011;1879;45.876;12.300;2023-12-20T04:55:12;12.00;;;11.00;;
3726;SDS011;1879;45.876;12.300;2023-12-20T04:57:40;12.77;;;11.57;;
3726;SDS011;1879;45.876;12.300;2023-12-20T05:00:08;14.20;;;12.40;;
3726;SDS011;1879;45.876;12.300;2023-12-20T05:02:35;12.80;;;11.37;;
3726;SDS011;1879;45.876;12.300;2023-12-20T05:05:03;15.40;;;13.70;;
3726;SDS011;1879;45.876;12.300;2023-12-20T05:07:30;15.90;;;14.37;;
3726;SDS011;1879;45.876;12.300;2023-12-20T05:09:57;14.70;;;13.30;;
3726;SDS011;1879;45.876;12.300;2023-12-20T05:12:24;14.80;;;13.40;;
3726;SDS011;1879;45.876;12.300;2023-12-20T05:14:53;13.80;;;12.50;;
3726;SDS011;1879;45.876;12.300;2023-12-20T05:17:20;15.20;;;13.63;;
3726;SDS011;1879;45.876;12.300;2023-12-20T05:19:46;13.27;;;12.03;;
3726;SDS011;1879;45.876;12.300;2023-12-20T05:22:13;14.00;;;12.63;;
3726;SDS011;1879;45.876;12.300;2023-12-20T05:24:40;14.80;;;13.40;;
3726;SDS011;1879;45.876;12.300;2023-12-20T05:27:07;14.77;;;13.27;;
3726;SDS011;1879;45.876;12.300;2023-12-20T05:29:34;14.47;;;13.17;;
3726;SDS011;1879;45.876;12.300;2023-12-20T05:32:02;13.60;;;12.50;;
3726;SDS011;1879;45.876;12.300;2023-12-20T05:34:30;15.97;;;14.50;;
3726;SDS011;1879;45.876;12.300;2023-12-20T05:36:57;15.10;;;13.80;;
3726;SDS011;1879;45.876;12.300;2023-12-20T05:39:24;21.13;;;15.47;;
3726;SDS011;1879;45.876;12.300;2023-12-20T05:41:51;17.93;;;16.23;;
3726;SDS011;1879;45.876;12.300;2023-12-20T05:44:18;19.13;;;17.13;;
3726;SDS011;1879;45.876;12.300;2023-12-20T05:46:45;19.67;;;17.77;;
3726;SDS011;1879;45.876;12.300;2023-12-20T05:49:13;20.63;;;18.23;;
3726;SDS011;1879;45.876;12.300;2023-12-20T05:51:40;23.17;;;19.27;;
3726;SDS011;1879;45.876;12.300;2023-12-20T05:54:07;20.73;;;18.73;;
3726;SDS011;1879;45.876;12.300;2023-12-20T05:56:35;22.37;;;18.80;;
3726;SDS011;1879;45.876;12.300;2023-12-20T05:59:02;21.33;;;18.90;;
3726;SDS011;1879;45.876;12.300;2023-12-20T06:01:29;19.93;;;17.83;;
3726;SDS011;1879;45.876;12.300;2023-12-20T06:03:55;20.97;;;18.43;;
3726;SDS011;1879;45.876;12.300;2023-12-20T06:06:24;21.80;;;18.83;;
3726;SDS011;1879;45.876;12.300;2023-12-20T06:08:51;20.67;;;18.63;;
3726;SDS011;1879;45.876;12.300;2023-12-20T06:11:18;19.47;;;17.47;;
3726;SDS011;1879;45.876;12.300;2023-12-20T06:13:44;16.77;;;15.07;;
3726;SDS011;1879;45.876;12.300;2023-12-20T06:16:11;21.73;;;19.60;;
3726;SDS011;1879;45.876;12.300;2023-12-20T06:18:38;20.17;;;17.70;;
3726;SDS011;1879;45.876;12.300;2023-12-20T06:21:06;21.73;;;19.27;;
3726;SDS011;1879;45.876;12.300;2023-12-20T06:23:35;20.60;;;18.50;;
3726;SDS011;1879;45.876;12.300;2023-12-20T06:26:02;22.77;;;20.47;;
3726;SDS011;1879;45.876;12.300;2023-12-20T06:28:29;22.07;;;19.67;;
3726;SDS011;1879;45.876;12.300;2023-12-20T06:30:56;22.67;;;20.43;;
3726;SDS011;1879;45.876;12.300;2023-12-20T06:33:22;21.40;;;19.20;;
3726;SDS011;1879;45.876;12.300;2023-12-20T06:35:50;21.10;;;19.20;;
3726;SDS011;1879;45.876;12.300;2023-12-20T06:38:17;24.97;;;22.40;;
3726;SDS011;1879;45.876;12.300;2023-12-20T06:40:45;21.37;;;18.87;;
3726;SDS011;1879;45.876;12.300;2023-12-20T06:43:12;21.83;;;19.53;;
3726;SDS011;1879;45.876;12.300;2023-12-20T06:45:39;23.10;;;19.77;;
3726;SDS011;1879;45.876;12.300;2023-12-20T06:48:07;25.37;;;22.30;;
3726;SDS011;1879;45.876;12.300;2023-12-20T06:50:36;25.03;;;22.43;;
3726;SDS011;1879;45.876;12.300;2023-12-20T06:53:05;24.50;;;22.27;;
3726;SDS011;1879;45.876;12.300;2023-12-20T06:55:32;33.87;;;30.40;;
3726;SDS011;1879;45.876;12.300;2023-12-20T06:58:01;23.50;;;21.10;;
3726;SDS011;1879;45.876;12.300;2023-12-20T07:00:29;20.80;;;18.70;;
3726;SDS011;1879;45.876;12.300;2023-12-20T07:02:56;22.10;;;20.07;;
3726;SDS011;1879;45.876;12.300;2023-12-20T07:05:23;23.50;;;21.13;;
3726;SDS011;1879;45.876;12.300;2023-12-20T07:07:50;23.50;;;21.10;;
3726;SDS011;1879;45.876;12.300;2023-12-20T07:10:17;23.37;;;19.93;;
3726;SDS011;1879;45.876;12.300;2023-12-20T07:12:44;20.60;;;18.70;;
3726;SDS011;1879;45.876;12.300;2023-12-20T07:15:12;21.33;;;19.23;;
3726;SDS011;1879;45.876;12.300;2023-12-20T07:17:39;25.17;;;21.00;;
3726;SDS011;1879;45.876;12.300;2023-12-20T07:20:07;31.10;;;27.50;;
3726;SDS011;1879;45.876;12.300;2023-12-20T07:22:36;29.33;;;26.53;;
3726;SDS011;1879;45.876;12.300;2023-12-20T07:25:07;27.17;;;24.33;;
3726;SDS011;1879;45.876;12.300;2023-12-20T07:27:35;30.67;;;25.70;;
3726;SDS011;1879;45.876;12.300;2023-12-20T07:30:02;30.73;;;27.43;;
3726;SDS011;1879;45.876;12.300;2023-12-20T07:32:31;32.60;;;28.90;;
3726;SDS011;1879;45.876;12.300;2023-12-20T07:34:58;33.87;;;30.47;;
3726;SDS011;1879;45.876;12.300;2023-12-20T07:37:25;43.33;;;34.73;;
3726;SDS011;1879;45.876;12.300;2023-12-20T07:39:52;31.50;;;28.30;;
3726;SDS011;1879;45.876;12.300;2023-12-20T07:42:19;29.70;;;26.23;;
3726;SDS011;1879;45.876;12.300;2023-12-20T07:44:47;30.13;;;23.90;;
3726;SDS011;1879;45.876;12.300;2023-12-20T07:47:14;22.10;;;18.87;;
3726;SDS011;1879;45.876;12.300;2023-12-20T07:49:45;21.83;;;19.60;;
3726;SDS011;1879;45.876;12.300;2023-12-20T07:52:12;30.23;;;26.80;;
3726;SDS011;1879;45.876;12.300;2023-12-20T07:54:39;34.90;;;28.93;;
3726;SDS011;1879;45.876;12.300;2023-12-20T07:57:07;30.57;;;27.30;;
3726;SDS011;1879;45.876;12.300;2023-12-20T07:59:35;27.47;;;24.53;;
3726;SDS011;1879;45.876;12.300;2023-12-20T08:02:02;31.90;;;28.67;;
3726;SDS011;1879;45.876;12.300;2023-12-20T08:04:29;20.93;;;17.20;;
3726;SDS011;1879;45.876;12.300;2023-12-20T08:06:59;22.40;;;19.50;;
3726;SDS011;1879;45.876;12.300;2023-12-20T08:09:26;27.13;;;24.17;;
3726;SDS011;1879;45.876;12.300;2023-12-20T08:11:52;27.27;;;24.77;;
3726;SDS011;1879;45.876;12.300;2023-12-20T08:14:19;27.83;;;22.33;;
3726;SDS011;1879;45.876;12.300;2023-12-20T08:16:46;25.60;;;22.83;;
3726;SDS011;1879;45.876;12.300;2023-12-20T08:19:13;24.97;;;22.10;;
3726;SDS011;1879;45.876;12.300;2023-12-20T08:21:40;29.43;;;22.67;;
3726;SDS011;1879;45.876;12.300;2023-12-20T08:24:08;28.43;;;25.53;;
3726;SDS011;1879;45.876;12.300;2023-12-20T08:26:35;28.40;;;23.30;;
3726;SDS011;1879;45.876;12.300;2023-12-20T08:29:02;26.83;;;23.23;;
3726;SDS011;1879;45.876;12.300;2023-12-20T08:31:29;28.93;;;23.83;;
3726;SDS011;1879;45.876;12.300;2023-12-20T08:33:56;24.43;;;21.60;;
3726;SDS011;1879;45.876;12.300;2023-12-20T08:36:23;35.10;;;23.83;;
3726;SDS011;1879;45.876;12.300;2023-12-20T08:38:50;30.07;;;26.87;;
3726;SDS011;1879;45.876;12.300;2023-12-20T08:41:18;38.17;;;34.17;;
3726;SDS011;1879;45.876;12.300;2023-12-20T08:43:45;35.63;;;31.47;;
3726;SDS011;1879;45.876;12.300;2023-12-20T08:46:13;36.70;;;32.80;;
3726;SDS011;1879;45.876;12.300;2023-12-20T08:48:40;38.87;;;35.17;;
3726;SDS011;1879;45.876;12.300;2023-12-20T08:51:07;61.10;;;54.90;;
3726;SDS011;1879;45.876;12.300;2023-12-20T08:53:34;43.73;;;39.43;;
3726;SDS011;1879;45.876;12.300;2023-12-20T08:56:01;37.30;;;33.37;;
3726;SDS011;1879;45.876;12.300;2023-12-20T08:58:30;45.53;;;35.10;;
3726;SDS011;1879;45.876;12.300;2023-12-20T09:00:57;49.97;;;33.80;;
3726;SDS011;1879;45.876;12.300;2023-12-20T09:03:23;27.53;;;24.80;;
3726;SDS011;1879;45.876;12.300;2023-12-20T09:05:50;25.93;;;23.03;;
3726;SDS011;1879;45.876;12.300;2023-12-20T09:08:17;22.30;;;20.10;;
3726;SDS011;1879;45.876;12.300;2023-12-20T09:10:44;25.30;;;22.57;;
3726;SDS011;1879;45.876;12.300;2023-12-20T09:13:11;31.23;;;23.27;;
3726;SDS011;1879;45.876;12.300;2023-12-20T09:15:39;25.73;;;22.77;;
3726;SDS011;1879;45.876;12.300;2023-12-20T09:18:06;27.10;;;24.20;;
3726;SDS011;1879;45.876;12.300;2023-12-20T09:20:34;26.33;;;23.40;;
3726;SDS011;1879;45.876;12.300;2023-12-20T09:23:01;28.47;;;24.43;;
3726;SDS011;1879;45.876;12.300;2023-12-20T09:25:28;28.57;;;25.30;;
3726;SDS011;1879;45.876;12.300;2023-12-20T09:27:55;28.03;;;25.33;;
3726;SDS011;1879;45.876;12.300;2023-12-20T09:30:22;25.30;;;22.80;;
3726;SDS011;1879;45.876;12.300;2023-12-20T09:32:50;26.07;;;23.37;;
3726;SDS011;1879;45.876;12.300;2023-12-20T09:35:17;30.37;;;25.47;;
3726;SDS011;1879;45.876;12.300;2023-12-20T09:37:44;34.47;;;30.60;;
3726;SDS011;1879;45.876;12.300;2023-12-20T09:40:12;29.27;;;26.53;;
3726;SDS011;1879;45.876;12.300;2023-12-20T09:42:42;29.80;;;26.80;;
3726;SDS011;1879;45.876;12.300;2023-12-20T09:45:15;28.17;;;25.20;;
3726;SDS011;1879;45.876;12.300;2023-12-20T09:47:43;24.63;;;22.13;;
3726;SDS011;1879;45.876;12.300;2023-12-20T09:50:12;32.20;;;29.00;;
3726;SDS011;1879;45.876;12.300;2023-12-20T09:52:39;27.63;;;24.40;;
3726;SDS011;1879;45.876;12.300;2023-12-20T09:55:07;34.30;;;30.90;;
3726;SDS011;1879;45.876;12.300;2023-12-20T09:57:37;40.80;;;36.67;;
3726;SDS011;1879;45.876;12.300;2023-12-20T10:00:06;41.43;;;37.47;;
3726;SDS011;1879;45.876;12.300;2023-12-20T10:02:34;34.63;;;31.20;;
3726;SDS011;1879;45.876;12.300;2023-12-20T10:05:06;31.30;;;28.30;;
3726;SDS011;1879;45.876;12.300;2023-12-20T10:07:36;28.30;;;25.50;;
3726;SDS011;1879;45.876;12.300;2023-12-20T10:10:03;27.90;;;24.37;;
3726;SDS011;1879;45.876;12.300;2023-12-20T10:12:31;29.20;;;24.63;;
3726;SDS011;1879;45.876;12.300;2023-12-20T10:14:58;27.83;;;25.13;;
3726;SDS011;1879;45.876;12.300;2023-12-20T10:17:26;28.63;;;25.93;;
3726;SDS011;1879;45.876;12.300;2023-12-20T10:19:55;27.90;;;25.00;;
3726;SDS011;1879;45.876;12.300;2023-12-20T10:22:22;27.47;;;24.67;;
3726;SDS011;1879;45.876;12.300;2023-12-20T10:24:50;23.07;;;20.87;;
3726;SDS011;1879;45.876;12.300;2023-12-20T10:27:17;22.00;;;19.67;;
3726;SDS011;1879;45.876;12.300;2023-12-20T10:29:45;24.90;;;20.53;;
3726;SDS011;1879;45.876;12.300;2023-12-20T10:32:21;23.30;;;20.83;;
3726;SDS011;1879;45.876;12.300;2023-12-20T10:34:49;22.20;;;20.00;;
3726;SDS011;1879;45.876;12.300;2023-12-20T10:37:16;22.30;;;20.13;;
3726;SDS011;1879;45.876;12.300;2023-12-20T10:39:44;22.43;;;20.13;;
3726;SDS011;1879;45.876;12.300;2023-12-20T10:42:16;24.57;;;21.60;;
3726;SDS011;1879;45.876;12.300;2023-12-20T10:44:46;23.33;;;21.13;;
3726;SDS011;1879;45.876;12.300;2023-12-20T10:47:13;26.13;;;20.90;;
3726;SDS011;1879;45.876;12.300;2023-12-20T10:49:40;21.40;;;19.50;;
3726;SDS011;1879;45.876;12.300;2023-12-20T10:52:08;20.57;;;18.33;;
3726;SDS011;1879;45.876;12.300;2023-12-20T10:54:37;21.00;;;18.77;;
3726;SDS011;1879;45.876;12.300;2023-12-20T10:57:05;22.20;;;20.00;;
3726;SDS011;1879;45.876;12.300;2023-12-20T10:59:36;21.20;;;19.20;;
3726;SDS011;1879;45.876;12.300;2023-12-20T11:02:04;24.33;;;21.90;;
3726;SDS011;1879;45.876;12.300;2023-12-20T11:04:34;23.60;;;21.23;;
3726;SDS011;1879;45.876;12.300;2023-12-20T11:07:07;24.20;;;21.70;;
3726;SDS011;1879;45.876;12.300;2023-12-20T11:09:43;24.37;;;21.80;;
3726;SDS011;1879;45.876;12.300;2023-12-20T11:12:16;27.93;;;24.43;;
3726;SDS011;1879;45.876;12.300;2023-12-20T11:14:52;26.90;;;24.20;;
3726;SDS011;1879;45.876;12.300;2023-12-20T11:17:21;29.77;;;26.83;;
3726;SDS011;1879;45.876;12.300;2023-12-20T11:20:05;29.20;;;26.37;;
3726;SDS011;1879;45.876;12.300;2023-12-20T11:22:35;29.10;;;26.03;;
3726;SDS011;1879;45.876;12.300;2023-12-20T11:25:04;28.10;;;25.30;;
3726;SDS011;1879;45.876;12.300;2023-12-20T11:27:33;33.23;;;27.40;;
3726;SDS011;1879;45.876;12.300;2023-12-20T11:30:02;31.60;;;28.23;;
3726;SDS011;1879;45.876;12.300;2023-12-20T11:32:32;31.10;;;28.27;;
3726;SDS011;1879;45.876;12.300;2023-12-20T11:35:01;34.87;;;31.47;;
3726;SDS011;1879;45.876;12.300;2023-12-20T11:37:42;34.53;;;30.93;;
3726;SDS011;1879;45.876;12.300;2023-12-20T11:40:12;35.30;;;31.63;;
3726;SDS011;1879;45.876;12.300;2023-12-20T11:42:41;35.87;;;32.47;;
3726;SDS011;1879;45.876;12.300;2023-12-20T11:45:10;37.07;;;33.33;;
3726;SDS011;1879;45.876;12.300;2023-12-20T11:47:40;35.50;;;31.93;;
3726;SDS011;1879;45.876;12.300;2023-12-20T11:50:08;35.30;;;31.90;;
3726;SDS011;1879;45.876;12.300;2023-12-20T11:52:35;36.27;;;32.00;;
3726;SDS011;1879;45.876;12.300;2023-12-20T11:55:02;38.47;;;34.60;;
3726;SDS011;1879;45.876;12.300;2023-12-20T11:57:30;37.63;;;33.70;;
3726;SDS011;1879;45.876;12.300;2023-12-20T11:59:57;40.97;;;36.80;;
3726;SDS011;1879;45.876;12.300;2023-12-20T12:02:25;61.53;;;52.40;;
3726;SDS011;1879;45.876;12.300;2023-12-20T12:04:52;53.13;;;47.70;;
3726;SDS011;1879;45.876;12.300;2023-12-20T12:07:20;56.83;;;47.07;;
3726;SDS011;1879;45.876;12.300;2023-12-20T12:09:47;44.77;;;40.17;;
3726;SDS011;1879;45.876;12.300;2023-12-20T12:12:14;38.67;;;34.67;;
3726;SDS011;1879;45.876;12.300;2023-12-20T12:14:41;42.03;;;38.00;;
3726;SDS011;1879;45.876;12.300;2023-12-20T12:17:11;41.37;;;37.07;;
3726;SDS011;1879;45.876;12.300;2023-12-20T12:19:40;41.13;;;37.13;;
3726;SDS011;1879;45.876;12.300;2023-12-20T12:22:08;47.77;;;43.47;;
3726;SDS011;1879;45.876;12.300;2023-12-20T12:24:38;54.60;;;48.70;;
3726;SDS011;1879;45.876;12.300;2023-12-20T12:27:06;45.10;;;40.50;;
3726;SDS011;1879;45.876;12.300;2023-12-20T12:29:33;40.87;;;36.80;;
3726;SDS011;1879;45.876;12.300;2023-12-20T12:32:00;45.83;;;41.17;;
3726;SDS011;1879;45.876;12.300;2023-12-20T12:34:27;46.33;;;41.70;;
3726;SDS011;1879;45.876;12.300;2023-12-20T12:36:56;51.30;;;46.37;;
3726;SDS011;1879;45.876;12.300;2023-12-20T12:39:23;51.60;;;46.33;;
3726;SDS011;1879;45.876;12.300;2023-12-20T12:41:51;51.20;;;44.23;;
3726;SDS011;1879;45.876;12.300;2023-12-20T12:44:18;54.67;;;47.33;;
3726;SDS011;1879;45.876;12.300;2023-12-20T12:46:45;62.77;;;56.27;;
3726;SDS011;1879;45.876;12.300;2023-12-20T12:49:15;49.57;;;41.97;;
3726;SDS011;1879;45.876;12.300;2023-12-20T12:51:42;59.27;;;49.83;;
3726;SDS011;1879;45.876;12.300;2023-12-20T12:54:11;53.87;;;47.83;;
3726;SDS011;1879;45.876;12.300;2023-12-20T12:56:41;45.90;;;41.60;;
3726;SDS011;1879;45.876;12.300;2023-12-20T12:59:08;46.53;;;41.60;;
3726;SDS011;1879;45.876;12.300;2023-12-20T13:01:35;45.80;;;41.00;;
3726;SDS011;1879;45.876;12.300;2023-12-20T13:04:02;45.07;;;40.77;;
3726;SDS011;1879;45.876;12.300;2023-12-20T13:06:31;44.93;;;40.40;;
3726;SDS011;1879;45.876;12.300;2023-12-20T13:08:58;46.40;;;40.87;;
3726;SDS011;1879;45.876;12.300;2023-12-20T13:11:27;46.53;;;41.63;;
3726;SDS011;1879;45.876;12.300;2023-12-20T13:13:54;45.40;;;40.60;;
3726;SDS011;1879;45.876;12.300;2023-12-20T13:16:21;43.50;;;39.40;;
3726;SDS011;1879;45.876;12.300;2023-12-20T13:18:48;45.57;;;40.97;;
3726;SDS011;1879;45.876;12.300;2023-12-20T13:21:14;44.70;;;40.40;;
3726;SDS011;1879;45.876;12.300;2023-12-20T13:23:41;41.33;;;37.53;;
3726;SDS011;1879;45.876;12.300;2023-12-20T13:26:08;43.50;;;38.93;;
3726;SDS011;1879;45.876;12.300;2023-12-20T13:28:37;37.93;;;34.43;;
3726;SDS011;1879;45.876;12.300;2023-12-20T13:31:04;43.93;;;38.33;;
3726;SDS011;1879;45.876;12.300;2023-12-20T13:33:31;39.53;;;35.70;;
3726;SDS011;1879;45.876;12.300;2023-12-20T13:35:58;39.57;;;35.27;;
3726;SDS011;1879;45.876;12.300;2023-12-20T13:38:24;38.83;;;34.93;;
3726;SDS011;1879;45.876;12.300;2023-12-20T13:40:51;38.87;;;35.37;;
3726;SDS011;1879;45.876;12.300;2023-12-20T13:43:18;39.40;;;35.50;;
3726;SDS011;1879;45.876;12.300;2023-12-20T13:45:48;37.30;;;33.80;;
3726;SDS011;1879;45.876;12.300;2023-12-20T13:48:17;36.80;;;33.23;;
3726;SDS011;1879;45.876;12.300;2023-12-20T13:50:44;37.67;;;33.87;;
3726;SDS011;1879;45.876;12.300;2023-12-20T13:53:11;39.53;;;35.60;;
3726;SDS011;1879;45.876;12.300;2023-12-20T13:55:39;36.60;;;32.83;;
3726;SDS011;1879;45.876;12.300;2023-12-20T13:58:06;36.07;;;32.53;;
3726;SDS011;1879;45.876;12.300;2023-12-20T14:00:33;35.90;;;30.80;;
3726;SDS011;1879;45.876;12.300;2023-12-20T14:03:03;34.50;;;31.00;;
3726;SDS011;1879;45.876;12.300;2023-12-20T14:05:32;37.70;;;34.30;;
3726;SDS011;1879;45.876;12.300;2023-12-20T14:07:59;37.17;;;33.50;;
3726;SDS011;1879;45.876;12.300;2023-12-20T14:10:25;37.67;;;33.97;;
3726;SDS011;1879;45.876;12.300;2023-12-20T14:12:53;40.10;;;36.30;;
3726;SDS011;1879;45.876;12.300;2023-12-20T14:15:20;38.53;;;34.30;;
3726;SDS011;1879;45.876;12.300;2023-12-20T14:17:50;39.30;;;35.23;;
3726;SDS011;1879;45.876;12.300;2023-12-20T14:20:18;38.13;;;34.50;;
3726;SDS011;1879;45.876;12.300;2023-12-20T14:22:46;37.10;;;33.70;;
3726;SDS011;1879;45.876;12.300;2023-12-20T14:25:13;36.97;;;33.57;;
3726;SDS011;1879;45.876;12.300;2023-12-20T14:27:41;38.47;;;34.67;;
3726;SDS011;1879;45.876;12.300;2023-12-20T14:30:09;38.73;;;35.07;;
3726;SDS011;1879;45.876;12.300;2023-12-20T14:32:36;39.07;;;35.33;;
3726;SDS011;1879;45.876;12.300;2023-12-20T14:35:04;40.63;;;36.53;;
3726;SDS011;1879;45.876;12.300;2023-12-20T14:37:34;39.33;;;35.27;;